Time;durP1;ratioP1;P1;durP2;ratioP2;P2;SDS_P1;SDS_P2;PMS_P1;PMS_P2;Temp;Humidity;BMP_temperature;BMP_pressure;BME280_temperature;BME280_humidity;BME280_pressure;Samples;Min_cycle;Max_cycle;Signal;HPM_P1;HPM_P2
2022/05/03 00:01:49;;;;;;;14.50;13.30;;;14.30;99.90;;;;;;5997705;23;20516;-85
2022/05/03 00:04:24;;;;;;;13.90;12.77;;;14.30;99.90;;;;;;5996514;23;20469;-85
2022/05/03 00:07:02;;;;;;;15.10;14.00;;;14.30;99.90;;;;;;6005249;23;20516;-85
2022/05/03 00:09:39;;;;;;;13.40;12.33;;;14.30;99.90;;;;;;5992815;23;20984;-85
2022/05/03 00:12:12;;;;;;;14.70;13.50;;;14.30;99.90;;;;;;6004944;23;20584;-85
2022/05/03 00:14:44;;;;;;;15.37;14.17;;;14.20;99.90;;;;;;6004171;23;20860;-85
2022/05/03 00:17:14;;;;;;;15.43;14.13;;;14.10;99.90;;;;;;6003655;23;20454;-84
2022/05/03 00:19:41;;;;;;;15.25;14.02;;;14.00;99.90;;;;;;6003893;23;20314;-85
2022/05/03 00:22:10;;;;;;;14.82;13.63;;;14.00;99.90;;;;;;6003928;23;20190;-86
2022/05/03 00:24:38;;;;;;;15.45;14.15;;;13.90;99.90;;;;;;6002684;23;20658;-85
2022/05/03 00:27:05;;;;;;;15.80;14.50;;;13.90;99.90;;;;;;6004760;23;21413;-84
2022/05/03 00:29:33;;;;;;;16.80;15.50;;;13.90;99.90;;;;;;5991932;23;21016;-86
2022/05/03 00:32:02;;;;;;;17.00;15.63;;;13.90;99.90;;;;;;6004188;23;20218;-86
2022/05/03 00:34:32;;;;;;;16.55;15.13;;;13.90;99.90;;;;;;6004271;23;20477;-85
2022/05/03 00:36:58;;;;;;;18.40;16.90;;;13.90;99.90;;;;;;6000477;23;20613;-85
2022/05/03 00:39:27;;;;;;;17.35;16.05;;;13.90;99.90;;;;;;6001402;23;20484;-84
2022/05/03 00:41:59;;;;;;;16.30;15.00;;;13.80;99.90;;;;;;6004280;23;20277;-84
2022/05/03 00:47:28;;;;;;;18.08;16.67;;;13.70;99.90;;;;;;6004461;23;20190;-84
2022/05/03 00:50:04;;;;;;;17.00;15.70;;;13.70;99.90;;;;;;6002003;23;20214;-84
2022/05/03 00:52:36;;;;;;;17.17;15.88;;;13.60;99.90;;;;;;6003334;23;20296;-84
2022/05/03 00:55:32;;;;;;;17.60;16.20;;;13.60;99.90;;;;;;5994736;23;20329;-84
2022/05/03 00:58:09;;;;;;;16.88;15.68;;;13.50;99.90;;;;;;6003684;23;20190;-84
2022/05/03 01:00:43;;;;;;;15.23;14.13;;;13.40;99.90;;;;;;5998469;23;20866;-85
2022/05/03 01:03:14;;;;;;;15.70;14.50;;;13.40;99.90;;;;;;5994067;23;20212;-84
2022/05/03 01:05:51;;;;;;;15.30;14.00;;;13.30;99.90;;;;;;6003801;23;20186;-85
2022/05/03 01:08:30;;;;;;;13.90;12.90;;;13.30;99.90;;;;;;6002100;23;20546;-85
2022/05/03 01:11:15;;;;;;;13.70;12.63;;;13.20;99.90;;;;;;6002545;23;20201;-85
2022/05/03 01:13:51;;;;;;;14.05;12.98;;;13.10;99.90;;;;;;6001628;23;20217;-84
2022/05/03 01:16:27;;;;;;;13.95;12.95;;;13.00;99.90;;;;;;5992911;23;20213;-85
2022/05/03 01:19:01;;;;;;;13.32;12.32;;;12.90;99.90;;;;;;6004726;23;20214;-84
2022/05/03 01:21:45;;;;;;;11.70;10.90;;;12.90;99.90;;;;;;6004337;23;20249;-85
2022/05/03 01:24:30;;;;;;;12.35;11.35;;;12.80;99.90;;;;;;6004871;23;20765;-85
2022/05/03 01:27:33;;;;;;;12.52;11.63;;;12.80;99.90;;;;;;6005865;23;20178;-84
2022/05/03 01:30:04;;;;;;;12.15;11.25;;;12.70;99.90;;;;;;5951673;23;20221;-84
2022/05/03 01:32:33;;;;;;;12.50;11.52;;;12.60;99.90;;;;;;6003757;23;20317;-85
2022/05/03 01:35:04;;;;;;;11.73;10.93;;;12.50;99.90;;;;;;6004039;23;20198;-85
2022/05/03 01:37:58;;;;;;;12.57;11.68;;;12.50;99.90;;;;;;6003437;23;20272;-84
2022/05/03 01:40:39;;;;;;;12.45;11.55;;;12.50;99.90;;;;;;6001506;23;20206;-85
2022/05/03 01:43:14;;;;;;;13.00;11.93;;;12.40;99.90;;;;;;6001248;23;20569;-84
2022/05/03 01:45:59;;;;;;;11.93;11.02;;;12.40;99.90;;;;;;6004993;23;20677;-84
2022/05/03 01:51:26;;;;;;;12.55;11.65;;;12.40;99.90;;;;;;6004028;23;20196;-84
2022/05/03 01:54:08;;;;;;;12.45;11.45;;;12.40;99.90;;;;;;6005342;23;20288;-84
2022/05/03 01:56:54;;;;;;;13.10;12.02;;;12.40;99.90;;;;;;6004275;23;20281;-85
2022/05/03 01:59:46;;;;;;;12.90;12.00;;;12.40;99.90;;;;;;6002502;23;20241;-84
2022/05/03 02:02:26;;;;;;;14.32;13.30;;;12.40;99.90;;;;;;6003725;23;20190;-85
2022/05/03 02:05:06;;;;;;;13.93;12.88;;;12.30;99.90;;;;;;6004330;23;20212;-85
2022/05/03 02:07:52;;;;;;;14.15;13.05;;;12.30;99.90;;;;;;6004750;23;20194;-83
2022/05/03 02:10:39;;;;;;;13.75;12.52;;;12.20;99.90;;;;;;6004751;23;20320;-84
2022/05/03 02:16:30;;;;;;;14.38;13.32;;;12.20;99.90;;;;;;5995365;23;20636;-83
2022/05/03 02:19:13;;;;;;;14.88;13.55;;;12.10;99.90;;;;;;5996607;23;20677;-85
2022/05/03 02:21:51;;;;;;;14.20;13.20;;;12.10;99.90;;;;;;6004258;23;20196;-84
2022/05/03 02:24:26;;;;;;;14.27;13.18;;;12.00;99.90;;;;;;6003629;23;20190;-83
2022/05/03 02:27:02;;;;;;;14.70;13.50;;;11.90;99.90;;;;;;6003414;23;20272;-84
2022/05/03 02:29:36;;;;;;;15.07;13.88;;;11.90;99.90;;;;;;6004223;23;20696;-84
2022/05/03 02:32:05;;;;;;;15.13;14.00;;;11.90;99.90;;;;;;6003818;23;20244;-84
2022/05/03 02:34:41;;;;;;;15.57;14.43;;;11.80;99.90;;;;;;6005806;23;20190;-84
2022/05/03 02:37:16;;;;;;;14.90;13.70;;;11.80;99.90;;;;;;6003707;23;20202;-84
2022/05/03 02:39:50;;;;;;;15.10;14.00;;;11.80;99.90;;;;;;5999958;23;20210;-84
2022/05/03 02:42:19;;;;;;;14.88;13.77;;;11.80;99.90;;;;;;6003125;23;20276;-85
2022/05/03 02:44:47;;;;;;;15.38;14.02;;;11.80;99.90;;;;;;6005110;23;20222;-85
2022/05/03 02:47:38;;;;;;;14.10;13.10;;;11.80;99.90;;;;;;6005206;23;20198;-85
2022/05/03 02:50:10;;;;;;;15.00;13.80;;;11.80;99.90;;;;;;5994555;23;20792;-84
2022/05/03 02:52:57;;;;;;;14.50;13.40;;;11.80;99.90;;;;;;6005538;23;20214;-84
2022/05/03 02:55:44;;;;;;;15.35;14.25;;;11.70;99.90;;;;;;5998804;23;20247;-85
2022/05/03 02:58:24;;;;;;;15.18;13.98;;;11.70;99.90;;;;;;6002095;23;20196;-84
2022/05/03 03:04:03;;;;;;;14.40;13.27;;;11.50;99.90;;;;;;6004638;23;20252;-84
2022/05/03 03:06:34;;;;;;;14.50;13.48;;;11.50;99.90;;;;;;5999840;23;20273;-84
2022/05/03 03:09:03;;;;;;;15.02;13.82;;;11.50;99.90;;;;;;6000272;23;20214;-84
2022/05/03 03:11:34;;;;;;;14.98;13.82;;;11.50;99.90;;;;;;6002546;23;20232;-84
2022/05/03 03:14:09;;;;;;;13.43;12.27;;;11.50;99.90;;;;;;6002788;23;20534;-85
2022/05/03 03:16:44;;;;;;;15.73;14.50;;;11.50;99.90;;;;;;5991887;23;20236;-84
2022/05/03 03:19:33;;;;;;;15.75;14.32;;;11.50;99.90;;;;;;6004228;23;20616;-85
2022/05/03 03:22:02;;;;;;;15.48;14.18;;;11.40;99.90;;;;;;6000056;23;20325;-84
2022/05/03 03:24:30;;;;;;;16.13;14.93;;;11.10;99.90;;;;;;6004532;23;20272;-83
2022/05/03 03:26:57;;;;;;;16.75;15.45;;;10.90;99.90;;;;;;6004217;23;20219;-84
2022/05/03 03:29:26;;;;;;;17.45;16.05;;;10.80;99.90;;;;;;6002879;23;20224;-84
2022/05/03 03:31:54;;;;;;;18.73;17.33;;;10.60;99.90;;;;;;5996706;23;20332;-84
2022/05/03 03:34:23;;;;;;;17.98;16.58;;;10.50;99.90;;;;;;6002317;23;20200;-83
2022/05/03 03:36:53;;;;;;;18.63;17.13;;;10.40;99.90;;;;;;5994577;23;20199;-84
2022/05/03 03:39:22;;;;;;;19.90;18.25;;;10.30;99.90;;;;;;6002546;23;20217;-84
2022/05/03 03:41:49;;;;;;;19.15;17.65;;;10.30;99.90;;;;;;6001300;23;20211;-84
2022/05/03 03:44:16;;;;;;;19.85;18.25;;;10.20;99.90;;;;;;6004576;23;20199;-84
2022/05/03 03:46:43;;;;;;;22.33;20.33;;;10.20;99.90;;;;;;6003346;23;20198;-84
2022/05/03 03:49:10;;;;;;;22.17;20.48;;;10.10;99.90;;;;;;6002548;23;20292;-83
2022/05/03 03:51:38;;;;;;;22.70;20.90;;;10.10;99.90;;;;;;6002725;23;20195;-83
2022/05/03 03:54:07;;;;;;;23.17;21.38;;;10.00;99.90;;;;;;6003672;23;20219;-84
2022/05/03 03:56:36;;;;;;;21.08;19.30;;;9.90;99.90;;;;;;6000692;23;20710;-84
2022/05/03 03:59:03;;;;;;;21.90;20.10;;;9.90;99.90;;;;;;5993608;23;20231;-84
2022/05/03 04:01:31;;;;;;;21.15;19.45;;;9.90;99.90;;;;;;6001350;23;20268;-84
2022/05/03 04:03:59;;;;;;;22.25;20.42;;;9.90;99.90;;;;;;6020513;23;20250;-81
2022/05/03 04:06:26;;;;;;;23.17;21.33;;;10.00;99.90;;;;;;6025951;23;20219;-81
2022/05/03 04:08:54;;;;;;;25.73;23.67;;;10.10;99.90;;;;;;6018115;23;20213;-81
2022/05/03 04:11:21;;;;;;;23.33;21.42;;;10.00;99.90;;;;;;6002143;23;20230;-81
2022/05/03 04:13:49;;;;;;;24.00;22.05;;;10.00;99.90;;;;;;6004385;23;20708;-81
2022/05/03 04:16:16;;;;;;;21.58;19.92;;;10.00;99.90;;;;;;6002816;23;20232;-81
2022/05/03 04:18:46;;;;;;;22.55;20.75;;;10.00;99.90;;;;;;6003493;23;20733;-81
2022/05/03 04:21:14;;;;;;;24.45;22.48;;;10.10;99.90;;;;;;6000704;23;20283;-81
2022/05/03 04:23:41;;;;;;;22.65;20.85;;;10.10;99.90;;;;;;6004781;23;20235;-82
2022/05/03 04:26:09;;;;;;;23.05;21.15;;;10.10;99.90;;;;;;6003230;23;20281;-82
2022/05/03 04:28:36;;;;;;;22.35;20.45;;;10.20;99.90;;;;;;6004121;23;20227;-82
2022/05/03 04:31:04;;;;;;;23.33;21.48;;;10.20;99.90;;;;;;6001780;23;20283;-82
2022/05/03 04:33:32;;;;;;;23.52;21.52;;;10.30;99.90;;;;;;6003207;23;20224;-82
2022/05/03 04:35:59;;;;;;;21.40;19.77;;;10.40;99.90;;;;;;5990397;23;20594;-81
2022/05/03 04:38:26;;;;;;;23.13;21.13;;;10.40;99.90;;;;;;5995478;23;20213;-79
2022/05/03 04:40:58;;;;;;;22.88;20.98;;;10.50;99.90;;;;;;5997992;23;20291;-84
2022/05/03 04:43:25;;;;;;;22.65;20.73;;;10.60;99.90;;;;;;5999586;23;20208;-83
2022/05/03 04:45:52;;;;;;;20.45;18.85;;;10.70;99.90;;;;;;6000937;23;20597;-85
2022/05/03 04:48:21;;;;;;;19.80;18.30;;;10.70;99.90;;;;;;5999214;23;20765;-83
2022/05/03 04:50:48;;;;;;;21.73;19.95;;;10.80;99.90;;;;;;6000718;23;20223;-84
2022/05/03 04:53:16;;;;;;;20.20;18.67;;;10.90;99.90;;;;;;6000181;23;20296;-83
2022/05/03 04:55:43;;;;;;;21.10;19.50;;;10.90;99.90;;;;;;6002075;23;20596;-83
2022/05/03 04:58:11;;;;;;;21.92;20.00;;;11.00;99.90;;;;;;6003527;23;20557;-83
2022/05/03 05:00:37;;;;;;;19.27;17.67;;;11.00;99.90;;;;;;6000815;23;20196;-83
2022/05/03 05:03:04;;;;;;;20.50;18.90;;;11.10;99.90;;;;;;6000512;23;20198;-81
2022/05/03 05:05:33;;;;;;;19.50;17.88;;;11.20;99.90;;;;;;5988600;23;20320;-82
2022/05/03 05:08:04;;;;;;;19.15;17.73;;;11.20;99.90;;;;;;5986626;23;20190;-84
2022/05/03 05:10:32;;;;;;;18.90;17.45;;;11.30;99.90;;;;;;5997631;23;20186;-83
2022/05/03 05:13:00;;;;;;;18.73;17.23;;;11.50;99.90;;;;;;5997007;23;20211;-82
2022/05/03 05:15:27;;;;;;;18.63;17.05;;;11.50;99.90;;;;;;5998574;23;20189;-79
2022/05/03 05:17:56;;;;;;;20.60;19.02;;;11.60;99.90;;;;;;5999801;23;20234;-83
2022/05/03 05:20:24;;;;;;;19.95;18.15;;;11.50;99.90;;;;;;5996712;23;20223;-83
2022/05/03 05:22:53;;;;;;;20.52;18.70;;;11.50;99.90;;;;;;5995483;23;20194;-83
2022/05/03 05:25:21;;;;;;;19.45;17.90;;;11.60;99.90;;;;;;5993888;23;20190;-89
2022/05/03 05:27:48;;;;;;;18.85;17.35;;;11.70;99.90;;;;;;5990525;23;20189;-88
2022/05/03 05:30:15;;;;;;;19.10;17.60;;;11.70;99.90;;;;;;5994609;23;20189;-79
2022/05/03 05:32:42;;;;;;;17.80;16.48;;;11.70;99.90;;;;;;5998443;23;20217;-79
2022/05/03 05:35:10;;;;;;;17.10;15.80;;;11.60;99.90;;;;;;5987304;23;20377;-80
2022/05/03 05:37:37;;;;;;;17.25;15.90;;;11.70;99.90;;;;;;5991285;23;20225;-83
2022/05/03 05:40:07;;;;;;;18.13;16.52;;;11.70;99.90;;;;;;5996550;23;20364;-83
2022/05/03 05:42:34;;;;;;;17.40;16.00;;;11.70;99.90;;;;;;5999860;23;20723;-83
2022/05/03 05:45:01;;;;;;;17.13;15.65;;;11.60;99.90;;;;;;5994612;23;20222;-82
2022/05/03 05:47:29;;;;;;;17.70;16.30;;;11.60;99.90;;;;;;5996206;23;20233;-83
2022/05/03 05:49:55;;;;;;;19.33;17.77;;;11.60;99.90;;;;;;5993918;23;20220;-83
2022/05/03 05:55:09;;;;;;;18.92;17.42;;;11.60;99.90;;;;;;5999735;23;20190;-82
2022/05/03 05:57:36;;;;;;;19.55;17.95;;;11.50;99.90;;;;;;6000212;23;20192;-82
2022/05/03 06:00:04;;;;;;;18.50;16.90;;;11.50;99.90;;;;;;5997956;23;20688;-83
2022/05/03 06:02:31;;;;;;;18.80;17.23;;;11.50;99.90;;;;;;5995761;23;20197;-84
2022/05/03 06:04:58;;;;;;;19.20;17.60;;;11.60;99.90;;;;;;6001025;23;20217;-83
2022/05/03 06:07:25;;;;;;;18.15;16.75;;;11.60;99.90;;;;;;5997257;23;20232;-84
2022/05/03 06:09:52;;;;;;;18.65;16.98;;;11.80;99.90;;;;;;5993531;23;20317;-83
2022/05/03 06:12:20;;;;;;;18.05;16.58;;;11.90;99.90;;;;;;6008000;23;20194;-84
2022/05/03 06:14:47;;;;;;;17.73;16.42;;;12.00;99.90;;;;;;6002081;23;20249;-83
2022/05/03 06:17:17;;;;;;;18.35;16.85;;;12.10;99.90;;;;;;6010120;23;20201;-83
2022/05/03 06:19:44;;;;;;;19.20;17.60;;;12.20;99.90;;;;;;5989390;23;20245;-83
2022/05/03 06:22:11;;;;;;;19.80;18.20;;;12.30;99.90;;;;;;6000700;23;20307;-85
2022/05/03 06:24:39;;;;;;;20.00;18.33;;;12.40;99.90;;;;;;6010212;23;20208;-83
2022/05/03 06:27:06;;;;;;;20.33;18.67;;;12.50;99.90;;;;;;6001439;23;20269;-82
2022/05/03 06:29:35;;;;;;;19.27;17.50;;;12.60;99.90;;;;;;6003674;23;20217;-83
2022/05/03 06:32:02;;;;;;;18.98;17.42;;;12.80;99.90;;;;;;6004102;23;20208;-81
2022/05/03 06:34:29;;;;;;;17.67;16.10;;;12.80;99.90;;;;;;5999115;23;20292;-78
2022/05/03 06:36:55;;;;;;;18.65;17.05;;;13.10;99.90;;;;;;5989076;23;20187;-79
2022/05/03 06:39:22;;;;;;;17.23;15.57;;;13.20;99.90;;;;;;5998957;23;20206;-82
2022/05/03 06:41:49;;;;;;;18.08;16.52;;;13.30;99.90;;;;;;5998729;23;20190;-81
2022/05/03 06:44:16;;;;;;;17.63;16.23;;;13.40;99.90;;;;;;6002861;23;20190;-82
2022/05/03 06:46:45;;;;;;;17.80;16.40;;;13.50;99.90;;;;;;5996413;23;20183;-82
2022/05/03 06:49:12;;;;;;;16.30;15.10;;;13.70;99.90;;;;;;5999200;23;20713;-82
2022/05/03 06:51:39;;;;;;;16.60;15.30;;;13.80;99.90;;;;;;5998697;23;20444;-83
2022/05/03 06:54:06;;;;;;;16.38;15.07;;;13.90;99.90;;;;;;6001851;23;20384;-82
2022/05/03 06:56:35;;;;;;;15.67;14.50;;;14.10;99.90;;;;;;5999809;23;20188;-82
2022/05/03 06:59:03;;;;;;;15.13;13.83;;;14.30;99.90;;;;;;5991422;23;20818;-82
2022/05/03 07:01:30;;;;;;;14.23;13.13;;;14.60;99.90;;;;;;5998696;23;20470;-82
2022/05/03 07:03:58;;;;;;;13.07;12.07;;;15.00;99.90;;;;;;5988614;23;20471;-83
2022/05/03 07:06:25;;;;;;;12.57;11.53;;;15.40;99.90;;;;;;5997633;23;20455;-83
2022/05/03 07:08:52;;;;;;;12.27;11.37;;;15.90;99.90;;;;;;5996101;23;20476;-83
2022/05/03 07:11:20;;;;;;;12.90;11.90;;;16.60;99.90;;;;;;5998578;23;20624;-83
2022/05/03 07:13:48;;;;;;;11.90;10.87;;;17.40;99.90;;;;;;5997360;23;20548;-83
2022/05/03 07:16:15;;;;;;;11.33;10.53;;;17.90;99.90;;;;;;5999040;23;20449;-83
2022/05/03 07:24:13;;;;;;;11.43;10.60;;;19.10;99.90;;;;;;5997702;23;20440;-83
2022/05/03 07:26:40;;;;;;;10.67;9.87;;;19.40;99.90;;;;;;5998717;23;20440;-83
2022/05/03 07:29:08;;;;;;;10.00;9.20;;;19.80;99.90;;;;;;5991529;23;20523;-83
2022/05/03 07:31:35;;;;;;;9.93;9.20;;;20.10;99.90;;;;;;5995806;23;20522;-83
2022/05/03 07:34:02;;;;;;;9.73;9.03;;;20.40;99.90;;;;;;5997703;23;20484;-83
2022/05/03 07:36:30;;;;;;;10.10;9.40;;;20.70;99.90;;;;;;5997424;23;20468;-84
2022/05/03 07:38:57;;;;;;;9.60;8.90;;;21.10;99.90;;;;;;5995433;23;21000;-83
2022/05/03 07:41:25;;;;;;;10.33;9.63;;;21.40;99.90;;;;;;5994723;23;20449;-83
2022/05/03 07:43:53;;;;;;;9.50;8.80;;;21.50;99.90;;;;;;5993114;23;20446;-84
2022/05/03 07:46:19;;;;;;;10.87;10.07;;;21.80;99.90;;;;;;5996520;23;20944;-83
2022/05/03 07:48:49;;;;;;;10.93;9.93;;;22.00;99.90;;;;;;5999874;23;20549;-83
2022/05/03 07:51:17;;;;;;;10.27;9.47;;;21.90;99.90;;;;;;5991081;23;20491;-83
2022/05/03 07:53:45;;;;;;;10.70;9.80;;;22.10;99.90;;;;;;5997762;23;20469;-84
2022/05/03 07:56:12;;;;;;;10.03;9.33;;;22.30;99.90;;;;;;5999917;23;20462;-84
2022/05/03 07:58:39;;;;;;;9.87;9.17;;;22.80;99.90;;;;;;5992424;23;20559;-83
2022/05/03 08:01:06;;;;;;;10.00;9.23;;;22.90;99.90;;;;;;5992296;23;20480;-83
2022/05/03 08:03:33;;;;;;;9.20;8.50;;;22.90;99.90;;;;;;6000718;23;20489;-83
2022/05/03 08:06:01;;;;;;;9.33;8.67;;;22.90;98.90;;;;;;5992705;23;20520;-84
2022/05/03 08:08:29;;;;;;;9.37;8.67;;;22.90;99.00;;;;;;5988903;23;20467;-84
2022/05/03 08:10:57;;;;;;;10.00;9.20;;;22.80;98.50;;;;;;6000177;23;20443;-84
2022/05/03 08:13:24;;;;;;;8.10;7.60;;;22.90;98.60;;;;;;5999802;23;20517;-83
2022/05/03 08:15:51;;;;;;;10.03;9.33;;;23.00;98.70;;;;;;5996111;23;20436;-83
2022/05/03 08:18:18;;;;;;;8.20;7.60;;;23.30;98.10;;;;;;5999051;23;20961;-84
2022/05/03 08:20:45;;;;;;;8.43;7.83;;;23.60;97.50;;;;;;5989926;23;20441;-84
2022/05/03 08:23:12;;;;;;;8.07;7.47;;;23.70;95.80;;;;;;5992063;23;20500;-84
2022/05/03 08:25:39;;;;;;;8.33;7.83;;;23.70;96.40;;;;;;5987514;23;20528;-84
2022/05/03 08:28:08;;;;;;;7.57;6.97;;;24.10;95.30;;;;;;5991795;23;20516;-83
2022/05/03 08:30:35;;;;;;;7.47;7.07;;;24.30;94.30;;;;;;5995887;23;20520;-84
2022/05/03 08:33:03;;;;;;;7.80;7.20;;;24.60;94.10;;;;;;5998106;23;20452;-83
2022/05/03 08:35:30;;;;;;;6.53;6.00;;;25.30;94.00;;;;;;5997155;23;20498;-81
2022/05/03 08:43:27;;;;;;;6.80;6.30;;;26.80;89.60;;;;;;5988569;23;20434;-84
2022/05/03 08:45:55;;;;;;;5.40;5.00;;;27.10;86.40;;;;;;6001485;23;20437;-82
2022/05/03 08:48:30;;;;;;;5.43;5.03;;;27.40;83.80;;;;;;5998347;23;20494;-85
2022/05/03 08:50:59;;;;;;;7.10;5.80;;;27.80;80.10;;;;;;5995113;23;20500;-84
2022/05/03 08:53:26;;;;;;;6.03;5.57;;;28.40;78.90;;;;;;5999736;23;20525;-84
2022/05/03 08:55:54;;;;;;;5.30;4.90;;;28.40;77.10;;;;;;5992850;23;20469;-85
2022/05/03 08:58:22;;;;;;;3.87;3.57;;;28.90;75.70;;;;;;6002427;23;20472;-84
2022/05/03 09:00:51;;;;;;;3.77;3.57;;;29.70;70.40;;;;;;5999421;23;20528;-85
2022/05/03 09:03:18;;;;;;;3.43;3.23;;;30.20;66.90;;;;;;6003613;23;20512;-78
2022/05/03 09:05:45;;;;;;;3.67;3.40;;;30.30;63.40;;;;;;5998851;23;20441;-79
2022/05/03 09:08:12;;;;;;;4.90;4.40;;;30.40;60.80;;;;;;6001741;23;20472;-78
2022/05/03 09:10:41;;;;;;;4.10;3.80;;;29.10;61.40;;;;;;5987247;23;20461;-78
2022/05/03 09:13:18;;;;;;;4.20;3.90;;;28.60;63.20;;;;;;5996827;23;20532;-78
2022/05/03 09:15:47;;;;;;;4.07;3.77;;;27.80;65.90;;;;;;5996732;23;20972;-78
2022/05/03 09:18:23;;;;;;;4.83;4.43;;;27.30;67.30;;;;;;5992366;23;20460;-78
2022/05/03 09:23:50;;;;;;;4.27;4.03;;;27.00;68.90;;;;;;5996706;23;20519;-78
2022/05/03 09:26:22;;;;;;;5.67;4.70;;;27.30;68.40;;;;;;6001441;23;20457;-78
2022/05/03 09:28:51;;;;;;;4.13;3.83;;;27.50;66.70;;;;;;5999470;23;20460;-78
2022/05/03 09:31:28;;;;;;;4.00;3.70;;;27.70;67.50;;;;;;5996804;23;20441;-75
2022/05/03 09:33:57;;;;;;;4.60;4.30;;;27.90;67.70;;;;;;6000954;23;20957;-78
2022/05/03 09:36:26;;;;;;;3.70;3.50;;;28.00;66.20;;;;;;5996319;23;20445;-78
2022/05/03 09:38:56;;;;;;;3.97;3.77;;;28.20;66.30;;;;;;5997096;23;21056;-78
2022/05/03 09:41:23;;;;;;;4.73;4.33;;;28.40;66.30;;;;;;5995373;23;20444;-78
2022/05/03 09:44:08;;;;;;;3.40;3.20;;;28.30;65.50;;;;;;5998798;23;20447;-78
2022/05/03 09:46:53;;;;;;;4.00;3.70;;;27.90;65.80;;;;;;6002975;23;21160;-78
2022/05/03 09:49:33;;;;;;;4.83;4.43;;;27.70;65.80;;;;;;6001248;23;20484;-79
2022/05/03 09:52:00;;;;;;;4.60;4.20;;;27.70;65.80;;;;;;6002189;23;20491;-79
2022/05/03 09:54:28;;;;;;;5.30;4.90;;;28.20;65.10;;;;;;5995352;23;20844;-79
2022/05/03 09:56:56;;;;;;;4.93;4.53;;;28.50;64.30;;;;;;6002245;23;20449;-79
2022/05/03 09:59:25;;;;;;;5.37;4.63;;;29.10;64.20;;;;;;5994884;23;20541;-79
2022/05/03 10:01:52;;;;;;;5.17;4.67;;;29.60;62.20;;;;;;5997169;23;20468;-79
2022/05/03 10:04:21;;;;;;;4.90;4.60;;;30.60;61.40;;;;;;5999415;23;20453;-79
2022/05/03 10:06:48;;;;;;;5.23;4.73;;;31.60;59.60;;;;;;5990016;23;20465;-79
2022/05/03 10:09:15;;;;;;;4.40;4.10;;;32.10;58.60;;;;;;6000189;23;20465;-79
2022/05/03 10:11:46;;;;;;;5.27;4.87;;;32.50;57.10;;;;;;5996806;23;20603;-79
2022/05/03 10:14:13;;;;;;;4.90;4.60;;;32.90;56.10;;;;;;5996756;23;20477;-80
2022/05/03 10:22:11;;;;;;;5.47;5.07;;;33.50;53.30;;;;;;5991663;23;20448;-78
2022/05/03 10:24:53;;;;;;;4.43;4.23;;;32.90;53.60;;;;;;5983345;23;21011;-79
2022/05/03 10:27:24;;;;;;;6.57;6.07;;;33.00;53.70;;;;;;5995150;23;20453;-78
2022/05/03 10:30:18;;;;;;;5.30;4.90;;;31.90;54.00;;;;;;5993665;23;22190;-78
2022/05/03 10:32:45;;;;;;;6.17;5.70;;;32.00;55.20;;;;;;5988655;23;20504;-78
2022/05/03 10:35:36;;;;;;;6.33;5.73;;;32.30;54.50;;;;;;5991457;23;20480;-78
2022/05/03 10:38:06;;;;;;;5.63;5.23;;;32.50;53.60;;;;;;5996888;23;20476;-78
2022/05/03 10:40:39;;;;;;;6.03;5.63;;;32.80;54.70;;;;;;6002284;23;20803;-78
2022/05/03 10:43:11;;;;;;;5.67;5.20;;;32.20;54.40;;;;;;6002855;23;20956;-78
2022/05/03 10:45:49;;;;;;;7.30;5.10;;;32.30;54.40;;;;;;5994440;23;20453;-78
2022/05/03 10:48:25;;;;;;;5.67;5.20;;;32.10;55.00;;;;;;5983978;23;20715;-78
2022/05/03 10:50:56;;;;;;;5.80;5.30;;;32.00;55.20;;;;;;5994983;23;20433;-78
2022/05/03 10:53:25;;;;;;;6.43;5.53;;;32.20;54.60;;;;;;6000250;23;20441;-78
2022/05/03 10:56:19;;;;;;;6.00;5.50;;;32.20;55.00;;;;;;5997967;23;20979;-78
2022/05/03 10:59:12;;;;;;;6.53;6.13;;;32.40;53.60;;;;;;5999552;23;20461;-85
2022/05/03 11:02:06;;;;;;;6.20;5.80;;;31.40;54.50;;;;;;5998062;23;20520;-85
2022/05/03 11:04:35;;;;;;;5.83;5.43;;;31.00;55.70;;;;;;5998262;23;20465;-84
2022/05/03 11:07:05;;;;;;;6.37;5.97;;;31.20;55.20;;;;;;6003206;23;20437;-85
2022/05/03 11:09:33;;;;;;;5.27;4.90;;;31.00;55.80;;;;;;5997810;23;20821;-85
2022/05/03 11:12:06;;;;;;;4.87;4.57;;;30.90;57.20;;;;;;6003406;23;20453;-85
2022/05/03 11:14:50;;;;;;;6.60;6.10;;;30.80;55.90;;;;;;6001471;23;21094;-85
2022/05/03 11:17:18;;;;;;;4.67;4.37;;;29.90;56.30;;;;;;6000074;23;20868;-85
2022/05/03 11:19:54;;;;;;;4.50;4.20;;;29.30;57.20;;;;;;5993448;23;20441;-85
2022/05/03 11:22:24;;;;;;;5.07;4.77;;;28.70;57.90;;;;;;6003965;23;20468;-85
2022/05/03 11:24:53;;;;;;;5.53;5.03;;;28.20;58.80;;;;;;6004843;23;20515;-85
2022/05/03 11:27:21;;;;;;;5.33;5.03;;;27.80;60.00;;;;;;6003536;23;20961;-86
2022/05/03 11:29:50;;;;;;;5.73;5.20;;;27.50;62.30;;;;;;6003820;23;20437;-85
2022/05/03 11:32:27;;;;;;;5.27;4.87;;;27.80;61.80;;;;;;5996910;23;20446;-86
2022/05/03 11:35:04;;;;;;;5.83;5.43;;;27.60;61.80;;;;;;5997562;23;21118;-85
2022/05/03 11:37:33;;;;;;;7.43;6.93;;;27.40;61.70;;;;;;5988050;23;20441;-85
2022/05/03 11:40:06;;;;;;;6.27;5.80;;;27.70;62.10;;;;;;5989064;23;20948;-85
2022/05/03 11:42:40;;;;;;;5.03;4.73;;;28.10;60.40;;;;;;5995101;23;20434;-87
2022/05/03 11:45:09;;;;;;;5.47;5.10;;;28.30;59.50;;;;;;5995440;23;20986;-86
2022/05/03 11:47:39;;;;;;;6.50;6.10;;;28.30;59.10;;;;;;5998298;23;20847;-87
2022/05/03 11:50:07;;;;;;;4.80;4.40;;;27.70;59.60;;;;;;5998885;23;20479;-86
2022/05/03 11:58:07;;;;;;;5.77;4.20;;;29.10;58.90;;;;;;5986583;23;20999;-83
2022/05/03 12:00:45;;;;;;;4.57;4.17;;;30.10;58.80;;;;;;5999307;23;20794;-79
2022/05/03 12:03:13;;;;;;;4.60;4.20;;;30.70;57.10;;;;;;5986891;23;20444;-79
2022/05/03 12:05:40;;;;;;;3.90;3.60;;;30.80;56.00;;;;;;6000076;23;21071;-79
2022/05/03 12:08:20;;;;;;;4.53;4.10;;;30.60;56.40;;;;;;5993525;23;20489;-82
2022/05/03 12:10:49;;;;;;;3.90;3.60;;;30.20;55.70;;;;;;5999184;23;20483;-81
2022/05/03 12:13:17;;;;;;;5.13;4.70;;;29.60;56.00;;;;;;5990939;23;20956;-82
2022/05/03 12:15:46;;;;;;;4.70;4.30;;;28.90;56.60;;;;;;5991128;23;20925;-82
2022/05/03 12:18:16;;;;;;;5.43;5.03;;;28.60;57.40;;;;;;6001422;23;20901;-82
2022/05/03 12:20:48;;;;;;;4.43;4.13;;;28.10;57.70;;;;;;5999556;23;20956;-82
2022/05/03 12:23:21;;;;;;;4.30;4.00;;;27.90;59.10;;;;;;6002059;23;20448;-82
2022/05/03 12:25:50;;;;;;;4.13;3.83;;;28.10;58.40;;;;;;5997722;23;20446;-83
2022/05/03 12:28:18;;;;;;;3.80;3.60;;;28.20;57.80;;;;;;5999882;23;20541;-85
2022/05/03 12:30:54;;;;;;;3.40;3.20;;;28.30;56.10;;;;;;6022095;23;20421;-85
2022/05/03 12:33:21;;;;;;;4.23;3.93;;;27.80;55.10;;;;;;6005462;23;20531;-85
2022/05/03 12:35:48;;;;;;;4.50;4.10;;;27.30;55.70;;;;;;6008805;23;20473;-83
2022/05/03 12:38:16;;;;;;;3.30;3.10;;;27.50;55.90;;;;;;6018929;23;20469;-84
2022/05/03 12:40:52;;;;;;;3.40;3.20;;;28.20;55.50;;;;;;6010195;23;20446;-84
2022/05/03 12:43:21;;;;;;;3.23;3.03;;;28.90;54.90;;;;;;6012189;23;20437;-84
2022/05/03 12:46:03;;;;;;;3.30;3.10;;;29.40;55.00;;;;;;6015492;23;20460;-83
2022/05/03 12:48:33;;;;;;;2.90;2.70;;;30.40;52.90;;;;;;5990832;23;20493;-82
2022/05/03 12:51:01;;;;;;;3.40;3.20;;;31.00;50.90;;;;;;6001084;23;21259;-84
2022/05/03 12:53:29;;;;;;;2.83;2.63;;;31.20;49.30;;;;;;6000773;23;20448;-83
2022/05/03 12:58:21;;;;;;;2.80;2.60;;;31.50;50.20;;;;;;5992764;23;20488;-84
2022/05/03 12:58:45;;;;;;;3.13;2.83;;;31.60;49.10;;;;;;5996122;23;20477;-84
2022/05/03 13:01:12;;;;;;;3.30;2.43;;;31.70;49.40;;;;;;5997836;23;20511;-83
2022/05/03 13:03:41;;;;;;;2.80;2.60;;;31.00;49.30;;;;;;6000522;23;21020;-83
2022/05/03 13:06:08;;;;;;;3.40;3.10;;;30.80;49.70;;;;;;5997333;23;20520;-82
2022/05/03 13:08:36;;;;;;;3.03;2.73;;;30.40;49.50;;;;;;5991974;23;20540;-83
2022/05/03 13:11:05;;;;;;;3.20;3.00;;;29.60;51.20;;;;;;6002427;23;20441;-83
2022/05/03 13:13:32;;;;;;;3.80;3.50;;;28.80;52.30;;;;;;5997953;23;20511;-83
2022/05/03 13:15:59;;;;;;;5.80;3.70;;;28.00;53.10;;;;;;6001820;23;20469;-83
2022/05/03 13:18:26;;;;;;;4.33;4.07;;;26.70;57.80;;;;;;5999548;23;20457;-84
2022/05/03 13:20:54;;;;;;;5.07;4.70;;;25.50;59.20;;;;;;6004795;23;20432;-83
2022/05/03 13:23:21;;;;;;;4.90;4.50;;;24.70;61.40;;;;;;6002742;23;20769;-83
2022/05/03 13:25:48;;;;;;;5.87;4.40;;;23.60;64.00;;;;;;6003145;23;20475;-82
2022/05/03 13:28:16;;;;;;;6.23;3.97;;;22.60;67.10;;;;;;6000131;23;20475;-82
2022/05/03 13:30:43;;;;;;;4.63;4.23;;;21.70;70.00;;;;;;6000162;23;20464;-83
2022/05/03 13:33:10;;;;;;;5.10;4.17;;;21.20;71.90;;;;;;6003000;23;21114;-83
2022/05/03 13:41:06;;;;;;;5.60;5.10;;;19.70;81.00;;;;;;5986496;23;20456;-82